BAW7D EGLL-KLAX
Flight info
| Callsign | BAW7D |
|---|---|
| Flight time | N/A |
| Altitude | 36000 |
| Route | ULTIB T420 TNT UL28 PENIL DCT DEJEM DCT OZRAT DCT WETFI DCT REVNU DCT PIKIL/M084F360 DCT 5630N02000W 5730N03000W 5830N04000W 5930N05000W DCT URTAK/N0487F380 DCT LAKES DCT 57N070W 55N080W 5230N09000W DCT KP18A DCT KU06W DCT KD87U/N0475F400 DCT KU54O DCT NORRA J107 BLD DCT HAKMN ANJLL4 |
| Aircraft | A388/J-SADE2E3FGHIJ3J4J5M1RWXY/LB1D1 |
Departure
| Time | 2026-05-06 01:00 |
|---|---|
| Airport | London Heathrow Airport (EGLL) |
Arrival
| Time | N/A |
|---|---|
| Airport | Los Angeles International Airport (KLAX) |
| Time | Latitude | Longitude | Altitude | Speed | Heading |
|---|---|---|---|---|---|
| 2026-05-05 23:38 | 51.46916 | -0.48244 | 91 ft | 0 kts | 89° |
| 2026-05-06 00:39 | 51.46915 | -0.48244 | 91 ft | 8 kts | 89° |
| 2026-05-06 00:40 | 51.46916 | -0.48244 | 91 ft | 0 kts | 89° |
| 2026-05-06 00:48 | 51.46916 | -0.48245 | 91 ft | 2 kts | 89° |
| 2026-05-06 00:49 | 51.46915 | -0.48285 | 91 ft | 4 kts | 89° |
| 2026-05-06 00:49 | 51.46915 | -0.48320 | 91 ft | 4 kts | 102° |
| 2026-05-06 00:49 | 51.46926 | -0.48351 | 94 ft | 4 kts | 160° |
| 2026-05-06 00:49 | 51.46950 | -0.48355 | 95 ft | 4 kts | 179° |
| 2026-05-06 00:50 | 51.46974 | -0.48355 | 93 ft | 1 kts | 179° |
| 2026-05-06 00:50 | 51.46975 | -0.48355 | 93 ft | 0 kts | 179° |
| 2026-05-06 00:53 | 51.46974 | -0.48355 | 91 ft | 1 kts | 179° |
| 2026-05-06 00:53 | 51.46941 | -0.48354 | 93 ft | 10 kts | 179° |
| 2026-05-06 00:54 | 51.46857 | -0.48356 | 94 ft | 11 kts | 180° |
| 2026-05-06 00:54 | 51.46782 | -0.48362 | 92 ft | 11 kts | 203° |
| 2026-05-06 00:54 | 51.46744 | -0.48466 | 94 ft | 13 kts | 266° |
| 2026-05-06 00:54 | 51.46742 | -0.48623 | 91 ft | 14 kts | 269° |
| 2026-05-06 00:55 | 51.46709 | -0.48727 | 95 ft | 11 kts | 202° |
| 2026-05-06 00:55 | 51.46636 | -0.48754 | 94 ft | 12 kts | 197° |
| 2026-05-06 00:55 | 51.46544 | -0.48781 | 93 ft | 15 kts | 171° |
| 2026-05-06 00:55 | 51.46478 | -0.48680 | 95 ft | 13 kts | 94° |
| 2026-05-06 00:56 | 51.46479 | -0.48603 | 92 ft | 0 kts | 91° |
| 2026-05-06 00:59 | 51.46478 | -0.48583 | 91 ft | 16 kts | 91° |
| 2026-05-06 00:59 | 51.46478 | -0.47990 | 94 ft | 89 kts | 90° |
| 2026-05-06 01:00 | 51.46484 | -0.46670 | 97 ft | 143 kts | 89° |
| 2026-05-06 01:00 | 51.46479 | -0.44939 | 320 ft | 162 kts | 88° |
| 2026-05-06 01:00 | 51.46505 | -0.43056 | 696 ft | 170 kts | 85° |
| 2026-05-06 01:00 | 51.46602 | -0.41219 | 1315 ft | 165 kts | 69° |
| 2026-05-06 01:01 | 51.47154 | -0.39672 | 1871 ft | 159 kts | 52° |
| 2026-05-06 01:01 | 51.47876 | -0.38225 | 2093 ft | 174 kts | 50° |
| 2026-05-06 01:01 | 51.48687 | -0.36673 | 2214 ft | 189 kts | 50° |
| 2026-05-06 01:01 | 51.49563 | -0.35009 | 2315 ft | 201 kts | 50° |
| 2026-05-06 01:02 | 51.50504 | -0.33224 | 2436 ft | 221 kts | 50° |
| 2026-05-06 01:02 | 51.51508 | -0.31216 | 2677 ft | 241 kts | 54° |
| 2026-05-06 01:02 | 51.52350 | -0.28845 | 3309 ft | 246 kts | 66° |
| 2026-05-06 01:02 | 51.53014 | -0.26293 | 4010 ft | 249 kts | 59° |
| 2026-05-06 01:03 | 51.54184 | -0.24251 | 4618 ft | 253 kts | 31° |
| 2026-05-06 01:03 | 51.55845 | -0.23357 | 5313 ft | 255 kts | 3° |
| 2026-05-06 01:03 | 51.57609 | -0.23718 | 5854 ft | 258 kts | 345° |
| 2026-05-06 01:03 | 51.59294 | -0.24589 | 6011 ft | 260 kts | 340° |
| 2026-05-06 01:04 | 51.61029 | -0.25563 | 6019 ft | 260 kts | 340° |
| 2026-05-06 01:04 | 51.62738 | -0.26435 | 6022 ft | 262 kts | 342° |
| 2026-05-06 01:04 | 51.64474 | -0.27233 | 6019 ft | 259 kts | 342° |
| 2026-05-06 01:04 | 51.66165 | -0.28218 | 6169 ft | 258 kts | 335° |
| 2026-05-06 01:05 | 51.67764 | -0.29584 | 6597 ft | 263 kts | 327° |
| 2026-05-06 01:05 | 51.69326 | -0.31131 | 7352 ft | 261 kts | 328° |
| 2026-05-06 01:05 | 51.70899 | -0.32640 | 8003 ft | 266 kts | 329° |
| 2026-05-06 01:05 | 51.72506 | -0.34174 | 8634 ft | 271 kts | 329° |
| 2026-05-06 01:06 | 51.74114 | -0.35712 | 9413 ft | 269 kts | 329° |
| 2026-05-06 01:06 | 51.75745 | -0.37281 | 10008 ft | 274 kts | 329° |
| 2026-05-06 01:06 | 51.77403 | -0.38880 | 10464 ft | 285 kts | 329° |
| 2026-05-06 01:06 | 51.79157 | -0.40577 | 10579 ft | 304 kts | 329° |
| 2026-05-06 01:07 | 51.81020 | -0.42381 | 10765 ft | 320 kts | 329° |
| 2026-05-06 01:07 | 51.82963 | -0.44264 | 11121 ft | 329 kts | 329° |
| 2026-05-06 01:07 | 51.84928 | -0.46171 | 11756 ft | 329 kts | 328° |
| 2026-05-06 01:07 | 51.86907 | -0.48093 | 12267 ft | 334 kts | 328° |
| 2026-05-06 01:08 | 51.88901 | -0.50033 | 12886 ft | 335 kts | 328° |
| 2026-05-06 01:08 | 51.90913 | -0.51991 | 13387 ft | 340 kts | 328° |
| 2026-05-06 01:08 | 51.92945 | -0.53972 | 13945 ft | 342 kts | 328° |
| 2026-05-06 01:08 | 51.95002 | -0.55980 | 14405 ft | 347 kts | 328° |
| 2026-05-06 01:09 | 51.97071 | -0.58001 | 14929 ft | 348 kts | 327° |
| 2026-05-06 01:09 | 51.98446 | -0.59345 | 15219 ft | 351 kts | 327° |
| 2026-05-06 01:09 | 52.00552 | -0.61404 | 15740 ft | 353 kts | 327° |
| 2026-05-06 01:09 | 52.02664 | -0.63474 | 16180 ft | 357 kts | 327° |
| 2026-05-06 01:10 | 52.04805 | -0.65574 | 16651 ft | 360 kts | 327° |
| 2026-05-06 01:10 | 52.06963 | -0.67692 | 17094 ft | 365 kts | 327° |
| 2026-05-06 01:10 | 52.09146 | -0.69838 | 17557 ft | 367 kts | 327° |
| 2026-05-06 01:10 | 52.11340 | -0.71997 | 18010 ft | 371 kts | 327° |
| 2026-05-06 01:11 | 52.13557 | -0.74180 | 18442 ft | 374 kts | 327° |
| 2026-05-06 01:11 | 52.15789 | -0.76382 | 18850 ft | 376 kts | 327° |
| 2026-05-06 01:11 | 52.18029 | -0.78594 | 19252 ft | 378 kts | 327° |
| 2026-05-06 01:11 | 52.20284 | -0.80823 | 19661 ft | 380 kts | 327° |
| 2026-05-06 01:12 | 52.22549 | -0.83065 | 20039 ft | 382 kts | 327° |
| 2026-05-06 01:12 | 52.24831 | -0.85327 | 20429 ft | 385 kts | 327° |
| 2026-05-06 01:12 | 52.27125 | -0.87604 | 20810 ft | 387 kts | 327° |
| 2026-05-06 01:12 | 52.29434 | -0.89897 | 21219 ft | 389 kts | 326° |
| 2026-05-06 01:13 | 52.31750 | -0.92200 | 21606 ft | 391 kts | 326° |
| 2026-05-06 01:13 | 52.34083 | -0.94525 | 21971 ft | 394 kts | 326° |
| 2026-05-06 01:13 | 52.36426 | -0.96861 | 22339 ft | 396 kts | 326° |
| 2026-05-06 01:13 | 52.38786 | -0.99218 | 22727 ft | 398 kts | 326° |
| 2026-05-06 01:14 | 52.43513 | -1.03947 | 23545 ft | 400 kts | 326° |
| 2026-05-06 01:14 | 52.45894 | -1.06333 | 23852 ft | 403 kts | 326° |
| 2026-05-06 01:14 | 52.48295 | -1.08742 | 24155 ft | 405 kts | 326° |
| 2026-05-06 01:15 | 52.50700 | -1.11159 | 24466 ft | 407 kts | 326° |
| 2026-05-06 01:15 | 52.53117 | -1.13590 | 24797 ft | 408 kts | 326° |
| 2026-05-06 01:15 | 52.55540 | -1.16030 | 25140 ft | 409 kts | 326° |
| 2026-05-06 01:15 | 52.57974 | -1.18484 | 25460 ft | 412 kts | 326° |
| 2026-05-06 01:16 | 52.60426 | -1.20959 | 25780 ft | 414 kts | 326° |
| 2026-05-06 01:16 | 52.62851 | -1.23411 | 26108 ft | 416 kts | 326° |
| 2026-05-06 01:16 | 52.65324 | -1.25913 | 26453 ft | 418 kts | 326° |
| 2026-05-06 01:16 | 52.67809 | -1.28431 | 26807 ft | 421 kts | 326° |
| 2026-05-06 01:17 | 52.70309 | -1.30968 | 27173 ft | 423 kts | 326° |
| 2026-05-06 01:17 | 52.72821 | -1.33523 | 27534 ft | 426 kts | 326° |
| 2026-05-06 01:17 | 52.75352 | -1.36102 | 27966 ft | 428 kts | 326° |
| 2026-05-06 01:17 | 52.77891 | -1.38692 | 28332 ft | 431 kts | 326° |
| 2026-05-06 01:18 | 52.80451 | -1.41306 | 28701 ft | 433 kts | 326° |
| 2026-05-06 01:18 | 52.83018 | -1.43933 | 29056 ft | 436 kts | 326° |
| 2026-05-06 01:18 | 52.85606 | -1.46585 | 29423 ft | 439 kts | 326° |
| 2026-05-06 01:18 | 52.88210 | -1.49257 | 29790 ft | 441 kts | 326° |
| 2026-05-06 01:19 | 52.90825 | -1.51944 | 30156 ft | 444 kts | 326° |
| 2026-05-06 01:19 | 52.93450 | -1.54642 | 30587 ft | 444 kts | 326° |
| 2026-05-06 01:19 | 52.96075 | -1.57347 | 30888 ft | 447 kts | 326° |
| 2026-05-06 01:19 | 52.98722 | -1.60080 | 31197 ft | 449 kts | 326° |
| 2026-05-06 01:20 | 53.01389 | -1.62836 | 31546 ft | 451 kts | 326° |
| 2026-05-06 01:20 | 53.04054 | -1.65595 | 31879 ft | 453 kts | 326° |
| 2026-05-06 01:20 | 53.06737 | -1.68375 | 32194 ft | 456 kts | 326° |
| 2026-05-06 01:20 | 53.09435 | -1.71178 | 32497 ft | 458 kts | 326° |
| 2026-05-06 01:21 | 53.12139 | -1.73992 | 32802 ft | 461 kts | 326° |
| 2026-05-06 01:21 | 53.14868 | -1.76837 | 33115 ft | 463 kts | 326° |
| 2026-05-06 01:21 | 53.17604 | -1.79692 | 33417 ft | 465 kts | 326° |
| 2026-05-06 01:21 | 53.20317 | -1.82646 | 33713 ft | 466 kts | 321° |
| 2026-05-06 01:22 | 53.22750 | -1.86216 | 34009 ft | 466 kts | 311° |
| 2026-05-06 01:22 | 53.24808 | -1.90382 | 34281 ft | 465 kts | 302° |
| 2026-05-06 01:22 | 53.26423 | -1.94940 | 34544 ft | 465 kts | 294° |
| 2026-05-06 01:22 | 53.27855 | -1.99818 | 34777 ft | 468 kts | 295° |
| 2026-05-06 01:23 | 53.29188 | -2.04280 | 35066 ft | 468 kts | 295° |
| 2026-05-06 01:23 | 53.30646 | -2.09151 | 35424 ft | 468 kts | 295° |
| 2026-05-06 01:23 | 53.32097 | -2.14038 | 34446 ft | 472 kts | 298° |
| 2026-05-06 01:23 | 53.33567 | -2.18983 | 34510 ft | 478 kts | 297° |
| 2026-05-06 01:24 | 53.36315 | -2.29304 | 34562 ft | 494 kts | 288° |
| 2026-05-06 01:24 | 53.38385 | -2.40294 | 35062 ft | 498 kts | 285° |
| 2026-05-06 01:25 | 53.39435 | -2.45774 | 35715 ft | 490 kts | 285° |
| 2026-05-06 01:25 | 53.40468 | -2.51197 | 36010 ft | 483 kts | 285° |
| 2026-05-06 01:25 | 53.41469 | -2.56476 | 36069 ft | 469 kts | 285° |
| 2026-05-06 01:25 | 53.42444 | -2.61636 | 36076 ft | 462 kts | 286° |
| 2026-05-06 01:26 | 53.44378 | -2.71952 | 36074 ft | 466 kts | 286° |
| 2026-05-06 01:26 | 53.46314 | -2.82327 | 36072 ft | 466 kts | 286° |
| 2026-05-06 01:27 | 53.48229 | -2.92649 | 36071 ft | 466 kts | 285° |
| 2026-05-06 01:27 | 53.50147 | -3.03028 | 36074 ft | 465 kts | 285° |
| 2026-05-06 01:28 | 53.52051 | -3.13408 | 36065 ft | 465 kts | 285° |
| 2026-05-06 01:28 | 53.53949 | -3.23796 | 36068 ft | 465 kts | 285° |
| 2026-05-06 01:29 | 53.55833 | -3.34187 | 36070 ft | 465 kts | 285° |
| 2026-05-06 01:29 | 53.57710 | -3.44590 | 36069 ft | 465 kts | 285° |
| 2026-05-06 01:30 | 53.59577 | -3.55003 | 36077 ft | 464 kts | 285° |
| 2026-05-06 01:30 | 53.61436 | -3.65413 | 36063 ft | 464 kts | 285° |
| 2026-05-06 01:31 | 53.63251 | -3.75841 | 36068 ft | 464 kts | 284° |
| 2026-05-06 01:31 | 53.65026 | -3.86286 | 36072 ft | 463 kts | 284° |
| 2026-05-06 01:32 | 53.66797 | -3.96732 | 36060 ft | 463 kts | 284° |
| 2026-05-06 01:32 | 53.68558 | -4.07163 | 36066 ft | 463 kts | 284° |
| 2026-05-06 01:33 | 53.70313 | -4.17608 | 36066 ft | 462 kts | 284° |
| 2026-05-06 01:33 | 53.72056 | -4.28058 | 36060 ft | 462 kts | 284° |
| 2026-05-06 01:34 | 53.73790 | -4.38511 | 36057 ft | 462 kts | 284° |
| 2026-05-06 01:34 | 53.75501 | -4.48895 | 36057 ft | 462 kts | 284° |
| 2026-05-06 01:35 | 53.77218 | -4.59361 | 36069 ft | 462 kts | 284° |
| 2026-05-06 01:35 | 53.78922 | -4.69828 | 36070 ft | 462 kts | 284° |
| 2026-05-06 01:36 | 53.80541 | -4.80345 | 36062 ft | 462 kts | 280° |
| 2026-05-06 01:36 | 53.81250 | -4.91122 | 36072 ft | 461 kts | 272° |
| 2026-05-06 01:37 | 53.81577 | -5.01959 | 36073 ft | 461 kts | 272° |
| 2026-05-06 01:37 | 53.81919 | -5.12807 | 36072 ft | 462 kts | 272° |
| 2026-05-06 01:38 | 53.82246 | -5.23657 | 36081 ft | 462 kts | 272° |
| 2026-05-06 01:38 | 53.82555 | -5.34508 | 36080 ft | 461 kts | 272° |
| 2026-05-06 01:39 | 53.82866 | -5.45355 | 36082 ft | 461 kts | 274° |
| 2026-05-06 01:39 | 53.83925 | -5.56053 | 36075 ft | 462 kts | 284° |
| 2026-05-06 01:40 | 53.85610 | -5.66550 | 36081 ft | 462 kts | 284° |
| 2026-05-06 01:40 | 53.87257 | -5.77067 | 36076 ft | 461 kts | 284° |
| 2026-05-06 01:41 | 53.88904 | -5.87568 | 36071 ft | 461 kts | 284° |
| 2026-05-06 01:41 | 53.90537 | -5.98069 | 36073 ft | 461 kts | 283° |
| 2026-05-06 01:42 | 53.92028 | -6.07726 | 36067 ft | 460 kts | 283° |
| 2026-05-06 01:42 | 53.93641 | -6.18235 | 36071 ft | 460 kts | 283° |
| 2026-05-06 01:43 | 53.95247 | -6.28762 | 36074 ft | 460 kts | 283° |
| 2026-05-06 01:43 | 53.96843 | -6.39292 | 36070 ft | 460 kts | 283° |
| 2026-05-06 01:44 | 53.98428 | -6.49833 | 36074 ft | 460 kts | 283° |
| 2026-05-06 01:44 | 54.00002 | -6.60372 | 36070 ft | 460 kts | 283° |
| 2026-05-06 01:45 | 54.01569 | -6.70919 | 36080 ft | 460 kts | 283° |
| 2026-05-06 01:45 | 54.03128 | -6.81470 | 36083 ft | 460 kts | 283° |
| 2026-05-06 01:46 | 54.04674 | -6.92019 | 36078 ft | 459 kts | 283° |
| 2026-05-06 01:46 | 54.06207 | -7.02547 | 36074 ft | 458 kts | 283° |
| 2026-05-06 01:47 | 54.07729 | -7.13080 | 36075 ft | 457 kts | 283° |
| 2026-05-06 01:47 | 54.09239 | -7.23600 | 36072 ft | 457 kts | 283° |
| 2026-05-06 01:48 | 54.10730 | -7.34048 | 36065 ft | 457 kts | 283° |
| 2026-05-06 01:48 | 54.12220 | -7.44564 | 36068 ft | 457 kts | 283° |
| 2026-05-06 01:49 | 54.13704 | -7.55106 | 36072 ft | 457 kts | 283° |
| 2026-05-06 01:49 | 54.15177 | -7.65650 | 36066 ft | 457 kts | 283° |
| 2026-05-06 01:50 | 54.16641 | -7.76202 | 36072 ft | 457 kts | 282° |
| 2026-05-06 01:50 | 54.18096 | -7.86767 | 36072 ft | 457 kts | 282° |
| 2026-05-06 01:51 | 54.19541 | -7.97330 | 36068 ft | 457 kts | 282° |
| 2026-05-06 01:51 | 54.20977 | -8.07899 | 36069 ft | 457 kts | 282° |
| 2026-05-06 01:52 | 54.22406 | -8.18481 | 36072 ft | 457 kts | 282° |
| 2026-05-06 01:52 | 54.23823 | -8.29063 | 36069 ft | 457 kts | 282° |
| 2026-05-06 01:53 | 54.25230 | -8.39667 | 36074 ft | 457 kts | 282° |
| 2026-05-06 01:53 | 54.26631 | -8.50282 | 36072 ft | 457 kts | 282° |
| 2026-05-06 01:54 | 54.28024 | -8.60893 | 36071 ft | 457 kts | 282° |
| 2026-05-06 01:54 | 54.29403 | -8.71520 | 36074 ft | 458 kts | 282° |
| 2026-05-06 01:55 | 54.30780 | -8.82148 | 36065 ft | 457 kts | 282° |
| 2026-05-06 01:55 | 54.32139 | -8.92777 | 36073 ft | 457 kts | 282° |
| 2026-05-06 01:56 | 54.33491 | -9.03421 | 36071 ft | 457 kts | 282° |
| 2026-05-06 01:56 | 54.34836 | -9.14084 | 36069 ft | 457 kts | 281° |
| 2026-05-06 01:57 | 54.36174 | -9.24752 | 36075 ft | 458 kts | 281° |
| 2026-05-06 01:57 | 54.37497 | -9.35417 | 36080 ft | 458 kts | 281° |
| 2026-05-06 01:58 | 54.38814 | -9.46100 | 36076 ft | 458 kts | 281° |
| 2026-05-06 01:58 | 54.40114 | -9.56735 | 36079 ft | 458 kts | 281° |
| 2026-05-06 01:59 | 54.41416 | -9.67454 | 36083 ft | 459 kts | 281° |
| 2026-05-06 01:59 | 54.42704 | -9.78178 | 36077 ft | 459 kts | 281° |
| 2026-05-06 02:00 | 54.43990 | -9.88925 | 36079 ft | 460 kts | 281° |
| 2026-05-06 02:00 | 54.45269 | -9.99686 | 36082 ft | 460 kts | 281° |
| 2026-05-06 02:01 | 54.46843 | -10.10329 | 36080 ft | 461 kts | 289° |
| 2026-05-06 02:01 | 54.49648 | -10.20251 | 36083 ft | 462 kts | 300° |
| 2026-05-06 02:02 | 54.52854 | -10.29530 | 36088 ft | 463 kts | 299° |
| 2026-05-06 02:02 | 54.56127 | -10.39073 | 36091 ft | 462 kts | 299° |
| 2026-05-06 02:03 | 54.59397 | -10.48619 | 36092 ft | 462 kts | 299° |
| 2026-05-06 02:03 | 54.62465 | -10.57615 | 36097 ft | 462 kts | 299° |
| 2026-05-06 02:04 | 54.65485 | -10.66498 | 36099 ft | 461 kts | 299° |
| 2026-05-06 02:04 | 54.68633 | -10.75804 | 36097 ft | 461 kts | 299° |
| 2026-05-06 02:05 | 54.71760 | -10.85073 | 36097 ft | 460 kts | 299° |
| 2026-05-06 02:05 | 54.74937 | -10.94518 | 36094 ft | 460 kts | 299° |
| 2026-05-06 02:06 | 54.77924 | -11.03445 | 36093 ft | 460 kts | 299° |
| 2026-05-06 02:06 | 54.81125 | -11.13051 | 36096 ft | 460 kts | 299° |
| 2026-05-06 02:07 | 54.84316 | -11.22664 | 36094 ft | 460 kts | 299° |
| 2026-05-06 02:07 | 54.87498 | -11.32295 | 36095 ft | 460 kts | 298° |
| 2026-05-06 02:08 | 54.90462 | -11.41282 | 36096 ft | 460 kts | 298° |
| 2026-05-06 02:08 | 54.93638 | -11.50950 | 36106 ft | 460 kts | 298° |
| 2026-05-06 02:09 | 54.96802 | -11.60625 | 36108 ft | 460 kts | 298° |
| 2026-05-06 02:09 | 54.99959 | -11.70321 | 36105 ft | 460 kts | 298° |
| 2026-05-06 02:10 | 55.03090 | -11.79976 | 36115 ft | 461 kts | 298° |
| 2026-05-06 02:10 | 55.06265 | -11.89807 | 36472 ft | 463 kts | 298° |
| 2026-05-06 02:11 | 55.07821 | -11.94646 | 36775 ft | 464 kts | 298° |
| 2026-05-06 02:11 | 55.09396 | -11.99542 | 37172 ft | 461 kts | 298° |
| 2026-05-06 02:11 | 55.10957 | -12.04408 | 37645 ft | 458 kts | 298° |
| 2026-05-06 02:11 | 55.12507 | -12.09253 | 38000 ft | 457 kts | 298° |
| 2026-05-06 02:12 | 55.14062 | -12.14120 | 38111 ft | 461 kts | 298° |
| 2026-05-06 02:12 | 55.15620 | -12.19007 | 38110 ft | 457 kts | 299° |
| 2026-05-06 02:12 | 55.18694 | -12.28678 | 38111 ft | 456 kts | 298° |
| 2026-05-06 02:13 | 55.21407 | -12.37246 | 38107 ft | 457 kts | 298° |
| 2026-05-06 02:13 | 55.24463 | -12.46933 | 38108 ft | 457 kts | 298° |
| 2026-05-06 02:14 | 55.27379 | -12.56217 | 38111 ft | 456 kts | 298° |
| 2026-05-06 02:14 | 55.30136 | -12.65025 | 38113 ft | 457 kts | 298° |
| 2026-05-06 02:15 | 55.32447 | -12.72436 | 38110 ft | 457 kts | 298° |
| 2026-05-06 02:15 | 55.35203 | -12.81303 | 38115 ft | 456 kts | 298° |
| 2026-05-06 02:16 | 55.38014 | -12.90379 | 38119 ft | 456 kts | 298° |
| 2026-05-06 02:16 | 55.41096 | -13.00367 | 38120 ft | 456 kts | 298° |
| 2026-05-06 02:17 | 55.44112 | -13.10188 | 38119 ft | 456 kts | 298° |
| 2026-05-06 02:17 | 55.47114 | -13.20003 | 38118 ft | 455 kts | 298° |
| 2026-05-06 02:18 | 55.50046 | -13.29625 | 38121 ft | 455 kts | 298° |
| 2026-05-06 02:18 | 55.51474 | -13.34329 | 38120 ft | 456 kts | 298° |
| 2026-05-06 02:19 | 55.53631 | -13.41446 | 38125 ft | 456 kts | 298° |
| 2026-05-06 02:19 | 55.56489 | -13.50912 | 38128 ft | 456 kts | 298° |
| 2026-05-06 02:20 | 55.60793 | -13.65249 | 38129 ft | 456 kts | 298° |
| 2026-05-06 02:21 | 55.63279 | -13.73565 | 38129 ft | 456 kts | 298° |
| 2026-05-06 02:21 | 55.66238 | -13.83499 | 38130 ft | 456 kts | 298° |
| 2026-05-06 02:22 | 55.68936 | -13.92595 | 38124 ft | 455 kts | 298° |
| 2026-05-06 02:22 | 55.71032 | -13.99684 | 38121 ft | 454 kts | 298° |
| 2026-05-06 02:23 | 55.73956 | -14.09616 | 38120 ft | 454 kts | 297° |
| 2026-05-06 02:23 | 55.76874 | -14.19569 | 38125 ft | 454 kts | 297° |
| 2026-05-06 02:24 | 55.79780 | -14.29519 | 38125 ft | 454 kts | 297° |
| 2026-05-06 02:24 | 55.82681 | -14.39490 | 38124 ft | 454 kts | 297° |
| 2026-05-06 02:25 | 55.85570 | -14.49470 | 38124 ft | 454 kts | 297° |
| 2026-05-06 02:25 | 55.88452 | -14.59470 | 38126 ft | 454 kts | 297° |
| 2026-05-06 02:26 | 55.91696 | -14.70790 | 38129 ft | 455 kts | 297° |
| 2026-05-06 02:26 | 55.94569 | -14.80838 | 38130 ft | 454 kts | 297° |
| 2026-05-06 02:27 | 55.97427 | -14.90880 | 38123 ft | 454 kts | 296° |
| 2026-05-06 02:27 | 55.99433 | -14.99551 | 38129 ft | 455 kts | 290° |
| 2026-05-06 02:28 | 56.00983 | -15.08572 | 38133 ft | 456 kts | 285° |
| 2026-05-06 02:28 | 56.02191 | -15.18542 | 38144 ft | 456 kts | 284° |
| 2026-05-06 02:29 | 56.03470 | -15.28958 | 38142 ft | 455 kts | 283° |
| 2026-05-06 02:29 | 56.04801 | -15.40017 | 38133 ft | 455 kts | 283° |
| 2026-05-06 02:30 | 56.06110 | -15.51089 | 38132 ft | 455 kts | 283° |
| 2026-05-06 02:30 | 56.07293 | -15.61231 | 38144 ft | 455 kts | 283° |
| 2026-05-06 02:31 | 56.08489 | -15.71566 | 38134 ft | 455 kts | 283° |
| 2026-05-06 02:31 | 56.09714 | -15.82224 | 38130 ft | 455 kts | 283° |
| 2026-05-06 02:32 | 56.10980 | -15.93336 | 38129 ft | 456 kts | 283° |
| 2026-05-06 02:32 | 56.12237 | -16.04466 | 38130 ft | 456 kts | 283° |
| 2026-05-06 02:33 | 56.13482 | -16.15600 | 38133 ft | 455 kts | 283° |
| 2026-05-06 02:33 | 56.13900 | -16.19362 | 38145 ft | 455 kts | 283° |
| 2026-05-06 02:34 | 56.15948 | -16.37881 | 38147 ft | 455 kts | 283° |
| 2026-05-06 02:34 | 56.17167 | -16.49037 | 38148 ft | 455 kts | 283° |
| 2026-05-06 02:35 | 56.18372 | -16.60187 | 38151 ft | 455 kts | 283° |
| 2026-05-06 02:35 | 56.19563 | -16.71324 | 38167 ft | 453 kts | 283° |
| 2026-05-06 02:36 | 56.20745 | -16.82449 | 38166 ft | 453 kts | 283° |
| 2026-05-06 02:36 | 56.21914 | -16.93565 | 38167 ft | 452 kts | 283° |
| 2026-05-06 02:37 | 56.23073 | -17.04669 | 38166 ft | 452 kts | 283° |
| 2026-05-06 02:37 | 56.24220 | -17.15769 | 38171 ft | 451 kts | 283° |
| 2026-05-06 02:38 | 56.25354 | -17.26854 | 38175 ft | 451 kts | 283° |
| 2026-05-06 02:38 | 56.26479 | -17.37939 | 38173 ft | 450 kts | 283° |
| 2026-05-06 02:39 | 56.27593 | -17.49021 | 38171 ft | 450 kts | 283° |
| 2026-05-06 02:39 | 56.28695 | -17.60109 | 38166 ft | 450 kts | 283° |
| 2026-05-06 02:40 | 56.29604 | -17.69335 | 38170 ft | 450 kts | 282° |
| 2026-05-06 02:40 | 56.30690 | -17.80441 | 38171 ft | 451 kts | 282° |
| 2026-05-06 02:41 | 56.31948 | -17.93436 | 38166 ft | 451 kts | 282° |
| 2026-05-06 02:41 | 56.32836 | -18.02690 | 38169 ft | 451 kts | 282° |
| 2026-05-06 02:42 | 56.33894 | -18.13840 | 38189 ft | 451 kts | 282° |
| 2026-05-06 02:42 | 56.34939 | -18.24986 | 38197 ft | 451 kts | 282° |
| 2026-05-06 02:43 | 56.35977 | -18.36144 | 38198 ft | 451 kts | 282° |
| 2026-05-06 02:43 | 56.37006 | -18.47316 | 38202 ft | 452 kts | 282° |
| 2026-05-06 02:44 | 56.38024 | -18.58494 | 38206 ft | 451 kts | 282° |
| 2026-05-06 02:44 | 56.39028 | -18.69649 | 38201 ft | 450 kts | 282° |
| 2026-05-06 02:45 | 56.40028 | -18.80864 | 38195 ft | 449 kts | 282° |
| 2026-05-06 02:45 | 56.41008 | -18.91994 | 38202 ft | 448 kts | 282° |
| 2026-05-06 02:46 | 56.41984 | -19.03109 | 38199 ft | 448 kts | 282° |
| 2026-05-06 02:46 | 56.42946 | -19.14234 | 38197 ft | 448 kts | 282° |
| 2026-05-06 02:47 | 56.43896 | -19.25346 | 38195 ft | 448 kts | 282° |
| 2026-05-06 02:47 | 56.44836 | -19.36475 | 38195 ft | 448 kts | 281° |
| 2026-05-06 02:48 | 56.45766 | -19.47604 | 38198 ft | 448 kts | 281° |
| 2026-05-06 02:48 | 56.46687 | -19.58754 | 38198 ft | 448 kts | 281° |
| 2026-05-06 02:49 | 56.47599 | -19.69910 | 38201 ft | 449 kts | 281° |
| 2026-05-06 02:49 | 56.48502 | -19.81081 | 38198 ft | 449 kts | 281° |
| 2026-05-06 02:50 | 56.49394 | -19.92182 | 38200 ft | 449 kts | 281° |
| 2026-05-06 02:50 | 56.50322 | -20.03426 | 38204 ft | 448 kts | 284° |
| 2026-05-06 02:51 | 56.51870 | -20.14230 | 38209 ft | 446 kts | 288° |
| 2026-05-06 02:51 | 56.53521 | -20.25066 | 38213 ft | 446 kts | 287° |
| 2026-05-06 02:52 | 56.55090 | -20.35958 | 38217 ft | 447 kts | 287° |
| 2026-05-06 02:52 | 56.56624 | -20.46869 | 38214 ft | 447 kts | 287° |
| 2026-05-06 02:53 | 56.58147 | -20.57791 | 38220 ft | 446 kts | 287° |
| 2026-05-06 02:53 | 56.59655 | -20.68723 | 38216 ft | 446 kts | 286° |
| 2026-05-06 02:54 | 56.61147 | -20.79652 | 38216 ft | 447 kts | 287° |
| 2026-05-06 02:54 | 56.62637 | -20.90603 | 38216 ft | 446 kts | 286° |
| 2026-05-06 02:55 | 56.64111 | -21.01546 | 38215 ft | 446 kts | 286° |
| 2026-05-06 02:55 | 56.65575 | -21.12484 | 38206 ft | 445 kts | 286° |
| 2026-05-06 02:56 | 56.67028 | -21.23428 | 38218 ft | 445 kts | 286° |
| 2026-05-06 02:56 | 56.68473 | -21.34356 | 38207 ft | 444 kts | 286° |
| 2026-05-06 02:57 | 56.69904 | -21.45286 | 38215 ft | 444 kts | 286° |
| 2026-05-06 02:57 | 56.71327 | -21.56243 | 38219 ft | 445 kts | 285° |
| 2026-05-06 02:58 | 56.72739 | -21.67202 | 38218 ft | 445 kts | 285° |
| 2026-05-06 02:58 | 56.74144 | -21.78185 | 38218 ft | 445 kts | 285° |
| 2026-05-06 02:59 | 56.75538 | -21.89164 | 38220 ft | 445 kts | 285° |
| 2026-05-06 02:59 | 56.76926 | -22.00175 | 38211 ft | 446 kts | 285° |
| 2026-05-06 03:00 | 56.78308 | -22.11206 | 38214 ft | 444 kts | 286° |
| 2026-05-06 03:00 | 56.79639 | -22.22058 | 38173 ft | 440 kts | 285° |
| 2026-05-06 03:01 | 56.80984 | -22.32957 | 38165 ft | 441 kts | 285° |
| 2026-05-06 03:01 | 56.82332 | -22.43901 | 38197 ft | 443 kts | 285° |
| 2026-05-06 03:02 | 56.83668 | -22.54917 | 38214 ft | 445 kts | 285° |
| 2026-05-06 03:02 | 56.84998 | -22.65991 | 38242 ft | 446 kts | 285° |
| 2026-05-06 03:03 | 56.86318 | -22.77065 | 38283 ft | 447 kts | 285° |
| 2026-05-06 03:03 | 56.87633 | -22.88178 | 38285 ft | 448 kts | 284° |
| 2026-05-06 03:04 | 56.88943 | -22.99310 | 38290 ft | 448 kts | 284° |
| 2026-05-06 03:04 | 56.90235 | -23.10447 | 38286 ft | 447 kts | 284° |
| 2026-05-06 03:05 | 56.91518 | -23.21565 | 38290 ft | 446 kts | 284° |
| 2026-05-06 03:05 | 56.92790 | -23.32677 | 38281 ft | 445 kts | 284° |
| 2026-05-06 03:06 | 56.94048 | -23.43770 | 38275 ft | 445 kts | 284° |
| 2026-05-06 03:06 | 56.95294 | -23.54852 | 38269 ft | 444 kts | 284° |
| 2026-05-06 03:07 | 56.96520 | -23.65860 | 38269 ft | 444 kts | 284° |
| 2026-05-06 03:07 | 56.97746 | -23.76941 | 38268 ft | 444 kts | 284° |
| 2026-05-06 03:08 | 56.98964 | -23.88040 | 38269 ft | 444 kts | 284° |
| 2026-05-06 03:08 | 57.00172 | -23.99147 | 38267 ft | 444 kts | 284° |
| 2026-05-06 03:09 | 57.01316 | -24.09746 | 38310 ft | 443 kts | 283° |
| 2026-05-06 03:09 | 57.02499 | -24.20831 | 38307 ft | 442 kts | 283° |
| 2026-05-06 03:10 | 57.03668 | -24.31893 | 38301 ft | 441 kts | 283° |
| 2026-05-06 03:10 | 57.04829 | -24.42957 | 38295 ft | 440 kts | 283° |
| 2026-05-06 03:11 | 57.05975 | -24.53988 | 38283 ft | 439 kts | 283° |
| 2026-05-06 03:11 | 57.07112 | -24.65002 | 38275 ft | 438 kts | 283° |
| 2026-05-06 03:12 | 57.08233 | -24.75996 | 38271 ft | 438 kts | 283° |
| 2026-05-06 03:12 | 57.09346 | -24.86994 | 38270 ft | 438 kts | 283° |
| 2026-05-06 03:13 | 57.10450 | -24.98011 | 38279 ft | 438 kts | 282° |
| 2026-05-06 03:13 | 57.11543 | -25.09035 | 38281 ft | 438 kts | 282° |
| 2026-05-06 03:14 | 57.12629 | -25.20063 | 38280 ft | 438 kts | 282° |
| 2026-05-06 03:14 | 57.13704 | -25.31119 | 38286 ft | 439 kts | 282° |
| 2026-05-06 03:15 | 57.14773 | -25.42200 | 38290 ft | 440 kts | 282° |
| 2026-05-06 03:15 | 57.15834 | -25.53306 | 38295 ft | 441 kts | 282° |
| 2026-05-06 03:16 | 57.16888 | -25.64437 | 38298 ft | 441 kts | 282° |
| 2026-05-06 03:16 | 57.17924 | -25.75506 | 38304 ft | 441 kts | 282° |
| 2026-05-06 03:17 | 57.18958 | -25.86659 | 38304 ft | 441 kts | 282° |
| 2026-05-06 03:17 | 57.19979 | -25.97811 | 38312 ft | 441 kts | 282° |
| 2026-05-06 03:18 | 57.20993 | -26.08971 | 38306 ft | 441 kts | 282° |
| 2026-05-06 03:18 | 57.21997 | -26.20122 | 38303 ft | 441 kts | 282° |
| 2026-05-06 03:19 | 57.22991 | -26.31285 | 38304 ft | 441 kts | 281° |
| 2026-05-06 03:19 | 57.23975 | -26.42443 | 38303 ft | 441 kts | 281° |
| 2026-05-06 03:20 | 57.25427 | -26.59205 | 38301 ft | 441 kts | 281° |
| 2026-05-06 03:20 | 57.26386 | -26.70381 | 38302 ft | 441 kts | 281° |
| 2026-05-06 03:21 | 57.27336 | -26.81574 | 38303 ft | 441 kts | 281° |
| 2026-05-06 03:21 | 57.28274 | -26.92767 | 38313 ft | 441 kts | 281° |
| 2026-05-06 03:22 | 57.29206 | -27.03982 | 38311 ft | 441 kts | 281° |
| 2026-05-06 03:22 | 57.30119 | -27.15128 | 38315 ft | 442 kts | 280° |
| 2026-05-06 03:23 | 57.31028 | -27.26351 | 38342 ft | 441 kts | 280° |
| 2026-05-06 03:23 | 57.31928 | -27.37586 | 38349 ft | 442 kts | 280° |
| 2026-05-06 03:24 | 57.32819 | -27.48834 | 38358 ft | 442 kts | 280° |
| 2026-05-06 03:24 | 57.33699 | -27.60080 | 38356 ft | 442 kts | 280° |
| 2026-05-06 03:25 | 57.34569 | -27.71334 | 38354 ft | 441 kts | 280° |
| 2026-05-06 03:25 | 57.35393 | -27.82103 | 38355 ft | 441 kts | 280° |
| 2026-05-06 03:26 | 57.36244 | -27.93368 | 38360 ft | 441 kts | 280° |
| 2026-05-06 03:26 | 57.37084 | -28.04606 | 38348 ft | 440 kts | 279° |
| 2026-05-06 03:27 | 57.37912 | -28.15855 | 38344 ft | 440 kts | 279° |
| 2026-05-06 03:27 | 57.38726 | -28.27089 | 38340 ft | 440 kts | 279° |
| 2026-05-06 03:28 | 57.39533 | -28.38339 | 38340 ft | 440 kts | 279° |
| 2026-05-06 03:28 | 57.40334 | -28.49592 | 38344 ft | 441 kts | 279° |
| 2026-05-06 03:29 | 57.41123 | -28.60883 | 38351 ft | 442 kts | 279° |
| 2026-05-06 03:29 | 57.41905 | -28.72196 | 38353 ft | 443 kts | 279° |
| 2026-05-06 03:30 | 57.42551 | -28.81632 | 38354 ft | 444 kts | 279° |
| 2026-05-06 03:30 | 57.43313 | -28.93014 | 38356 ft | 445 kts | 278° |
| 2026-05-06 03:31 | 57.44071 | -29.04425 | 38361 ft | 446 kts | 278° |
| 2026-05-06 03:31 | 57.44822 | -29.15863 | 38362 ft | 447 kts | 278° |
| 2026-05-06 03:32 | 57.45562 | -29.27324 | 38366 ft | 447 kts | 278° |
| 2026-05-06 03:32 | 57.46292 | -29.38793 | 38364 ft | 448 kts | 278° |
| 2026-05-06 03:33 | 57.47013 | -29.50280 | 38365 ft | 448 kts | 278° |
| 2026-05-06 03:33 | 57.47724 | -29.61777 | 38370 ft | 447 kts | 278° |
| 2026-05-06 03:34 | 57.48432 | -29.73266 | 38367 ft | 447 kts | 278° |
| 2026-05-06 03:34 | 57.49129 | -29.84740 | 38370 ft | 446 kts | 278° |
| 2026-05-06 03:35 | 57.49811 | -29.96122 | 38366 ft | 446 kts | 278° |
| 2026-05-06 03:35 | 57.50761 | -30.07481 | 38349 ft | 444 kts | 286° |
| 2026-05-06 03:36 | 57.52486 | -30.18490 | 38350 ft | 444 kts | 287° |
| 2026-05-06 03:36 | 57.54154 | -30.29553 | 38353 ft | 444 kts | 286° |
| 2026-05-06 03:37 | 57.55737 | -30.40690 | 38351 ft | 446 kts | 286° |
| 2026-05-06 03:37 | 57.57299 | -30.51869 | 38352 ft | 447 kts | 285° |
| 2026-05-06 03:38 | 57.58850 | -30.63094 | 38355 ft | 448 kts | 285° |
| 2026-05-06 03:38 | 57.60392 | -30.74351 | 38374 ft | 449 kts | 285° |
| 2026-05-06 03:39 | 57.61931 | -30.85671 | 38375 ft | 451 kts | 285° |
| 2026-05-06 03:39 | 57.63463 | -30.97042 | 38379 ft | 453 kts | 285° |
| 2026-05-06 03:40 | 57.64985 | -31.08457 | 38380 ft | 454 kts | 284° |
| 2026-05-06 03:40 | 57.66509 | -31.19919 | 38388 ft | 455 kts | 284° |
| 2026-05-06 03:41 | 57.68027 | -31.31425 | 38391 ft | 456 kts | 284° |
| 2026-05-06 03:41 | 57.69528 | -31.42891 | 38406 ft | 458 kts | 284° |
| 2026-05-06 03:42 | 57.71031 | -31.54468 | 38396 ft | 458 kts | 284° |
| 2026-05-06 03:42 | 57.72521 | -31.66056 | 38398 ft | 458 kts | 284° |
| 2026-05-06 03:43 | 57.73998 | -31.77641 | 38395 ft | 458 kts | 284° |
| 2026-05-06 03:43 | 57.75465 | -31.89230 | 38398 ft | 457 kts | 284° |
| 2026-05-06 03:44 | 57.76921 | -32.00806 | 38390 ft | 456 kts | 284° |
| 2026-05-06 03:44 | 57.78362 | -32.12377 | 38381 ft | 456 kts | 284° |
| 2026-05-06 03:45 | 57.79795 | -32.23950 | 38383 ft | 456 kts | 284° |
| 2026-05-06 03:45 | 57.81215 | -32.35535 | 38378 ft | 456 kts | 283° |
| 2026-05-06 03:46 | 57.82627 | -32.47141 | 38375 ft | 457 kts | 283° |
| 2026-05-06 03:46 | 57.84033 | -32.58784 | 38375 ft | 458 kts | 283° |
| 2026-05-06 03:47 | 57.85430 | -32.70470 | 38378 ft | 460 kts | 283° |
| 2026-05-06 03:47 | 57.86821 | -32.82204 | 38379 ft | 461 kts | 283° |
| 2026-05-06 03:48 | 57.88208 | -32.94000 | 38383 ft | 463 kts | 283° |
| 2026-05-06 03:48 | 57.89589 | -33.05840 | 38390 ft | 465 kts | 283° |
| 2026-05-06 03:49 | 57.90965 | -33.17747 | 38394 ft | 466 kts | 282° |
| 2026-05-06 03:49 | 57.92333 | -33.29698 | 38398 ft | 468 kts | 282° |
| 2026-05-06 03:50 | 57.93685 | -33.41611 | 38403 ft | 470 kts | 282° |
| 2026-05-06 03:50 | 57.95039 | -33.53652 | 38408 ft | 470 kts | 282° |
| 2026-05-06 03:51 | 57.96381 | -33.65702 | 38422 ft | 471 kts | 282° |
| 2026-05-06 03:51 | 57.97715 | -33.77777 | 38425 ft | 471 kts | 282° |
| 2026-05-06 03:52 | 57.99034 | -33.89853 | 38419 ft | 471 kts | 282° |
| 2026-05-06 03:52 | 58.00345 | -34.01944 | 38413 ft | 470 kts | 282° |
| 2026-05-06 03:53 | 58.01644 | -34.14029 | 38419 ft | 470 kts | 282° |
| 2026-05-06 03:53 | 58.02927 | -34.26109 | 38407 ft | 469 kts | 282° |
| 2026-05-06 03:54 | 58.04196 | -34.38185 | 38409 ft | 469 kts | 281° |
| 2026-05-06 03:54 | 58.05453 | -34.50246 | 38406 ft | 468 kts | 282° |
| 2026-05-06 03:55 | 58.06702 | -34.62317 | 38398 ft | 468 kts | 281° |
| 2026-05-06 03:55 | 58.07934 | -34.74369 | 38394 ft | 467 kts | 281° |
| 2026-05-06 03:56 | 58.09155 | -34.86443 | 38391 ft | 467 kts | 281° |
| 2026-05-06 03:56 | 58.10365 | -34.98515 | 38392 ft | 468 kts | 281° |
| 2026-05-06 03:57 | 58.11566 | -35.10626 | 38397 ft | 468 kts | 281° |
| 2026-05-06 03:57 | 58.12749 | -35.22663 | 38391 ft | 470 kts | 281° |
| 2026-05-06 03:58 | 58.13932 | -35.34843 | 38391 ft | 471 kts | 281° |
| 2026-05-06 03:58 | 58.15107 | -35.47077 | 38398 ft | 473 kts | 281° |
| 2026-05-06 03:59 | 58.16279 | -35.59379 | 38396 ft | 476 kts | 280° |
| 2026-05-06 03:59 | 58.17441 | -35.71737 | 38399 ft | 478 kts | 280° |
| 2026-05-06 04:00 | 58.18597 | -35.84166 | 38416 ft | 480 kts | 280° |
| 2026-05-06 04:00 | 58.19745 | -35.96661 | 38430 ft | 482 kts | 280° |
| 2026-05-06 04:01 | 58.20886 | -36.09193 | 38427 ft | 483 kts | 279° |
| 2026-05-06 04:01 | 58.22018 | -36.21740 | 38439 ft | 483 kts | 279° |
| 2026-05-06 04:02 | 58.23133 | -36.34310 | 38437 ft | 483 kts | 279° |
| 2026-05-06 04:02 | 58.24236 | -36.46857 | 38442 ft | 482 kts | 279° |
| 2026-05-06 04:03 | 58.25325 | -36.59402 | 38425 ft | 481 kts | 279° |
| 2026-05-06 04:03 | 58.26403 | -36.71927 | 38429 ft | 480 kts | 279° |
| 2026-05-06 04:04 | 58.27454 | -36.84343 | 38414 ft | 479 kts | 279° |
| 2026-05-06 04:04 | 58.28502 | -36.96835 | 38398 ft | 478 kts | 279° |
| 2026-05-06 04:05 | 58.29534 | -37.09318 | 38398 ft | 478 kts | 279° |
| 2026-05-06 04:05 | 58.30553 | -37.21799 | 38350 ft | 479 kts | 279° |
| 2026-05-06 04:06 | 58.31565 | -37.34352 | 38331 ft | 481 kts | 278° |
| 2026-05-06 04:06 | 58.32567 | -37.46938 | 38324 ft | 482 kts | 278° |
| 2026-05-06 04:07 | 58.33561 | -37.59580 | 38329 ft | 484 kts | 278° |
| 2026-05-06 04:07 | 58.34548 | -37.72287 | 38335 ft | 486 kts | 278° |
| 2026-05-06 04:08 | 58.35523 | -37.85028 | 38339 ft | 487 kts | 278° |
| 2026-05-06 04:08 | 58.36424 | -37.96948 | 38340 ft | 488 kts | 277° |